createdAt,value
2023-03-05T00:01:30.139Z,2.90
2023-03-05T00:03:57.511Z,2.90
2023-03-05T00:06:28.599Z,2.90
2023-03-05T00:08:58.452Z,2.90
2023-03-05T00:11:29.933Z,2.80
2023-03-05T00:13:58.574Z,2.80
2023-03-05T00:16:26.877Z,2.70
2023-03-05T00:18:55.715Z,2.70
2023-03-05T00:21:32.698Z,2.70
2023-03-05T00:24:04.883Z,2.70
2023-03-05T00:26:34.480Z,2.70
2023-03-05T00:29:01.755Z,2.70
2023-03-05T00:31:31.364Z,2.70
2023-03-05T00:34:10.728Z,2.70
2023-03-05T00:36:50.794Z,2.70
2023-03-05T00:39:20.453Z,2.60
2023-03-05T00:41:47.768Z,2.60
2023-03-05T00:44:14.623Z,2.60
2023-03-05T00:46:41.542Z,2.60
2023-03-05T00:49:08.501Z,2.60
2023-03-05T00:51:35.458Z,2.60
2023-03-05T00:54:03.327Z,2.60
2023-03-05T00:56:30.277Z,2.70
2023-03-05T00:58:57.237Z,2.60
2023-03-05T01:01:24.703Z,2.70
2023-03-05T01:03:51.597Z,2.60
2023-03-05T01:06:18.555Z,2.70
2023-03-05T01:08:46.051Z,2.60
2023-03-05T01:11:13.541Z,2.60
2023-03-05T01:13:40.716Z,2.60
2023-03-05T01:16:08.729Z,2.60
2023-03-05T01:18:37.468Z,2.60
2023-03-05T01:21:04.926Z,2.60
2023-03-05T01:23:32.200Z,2.50
2023-03-05T01:26:00.223Z,2.60
2023-03-05T01:28:28.381Z,2.50
2023-03-05T01:30:55.524Z,2.60
2023-03-05T01:33:22.674Z,2.60
2023-03-05T01:35:50.260Z,2.60
2023-03-05T01:38:17.347Z,2.60
2023-03-05T01:40:45.266Z,2.60
2023-03-05T01:43:12.072Z,2.50
2023-03-05T01:46:17.682Z,2.50
2023-03-05T01:49:33.823Z,2.50
2023-03-05T01:52:03.635Z,2.50
2023-03-05T01:54:51.873Z,2.50
2023-03-05T01:57:24.837Z,2.50
2023-03-05T01:59:57.820Z,2.50
2023-03-05T02:02:25.878Z,2.50
2023-03-05T02:05:04.733Z,2.50
2023-03-05T02:07:33.555Z,2.50
2023-03-05T02:10:00.297Z,2.40
2023-03-05T02:12:27.150Z,2.40
2023-03-05T02:14:59.164Z,2.40
2023-03-05T02:17:28.188Z,2.40
2023-03-05T02:20:06.496Z,2.40
2023-03-05T02:22:33.322Z,2.40
2023-03-05T02:25:00.161Z,2.40
2023-03-05T02:27:35.655Z,2.40
2023-03-05T02:30:03.603Z,2.30
2023-03-05T02:32:30.396Z,2.30
2023-03-05T02:34:57.322Z,2.30
2023-03-05T02:37:24.152Z,2.20
2023-03-05T02:39:51.033Z,2.20
2023-03-05T02:42:17.833Z,2.20
2023-03-05T02:44:44.591Z,2.20
2023-03-05T02:47:11.631Z,2.20
2023-03-05T02:49:38.524Z,2.20
2023-03-05T02:52:05.794Z,2.30
2023-03-05T02:54:32.637Z,2.30
2023-03-05T02:56:59.441Z,2.30
2023-03-05T02:59:26.292Z,2.30
2023-03-05T03:01:53.042Z,2.30
2023-03-05T03:04:19.848Z,2.30
2023-03-05T03:06:46.621Z,2.30
2023-03-05T03:09:13.476Z,2.30
2023-03-05T03:11:40.301Z,2.30
2023-03-05T03:14:07.115Z,2.30
2023-03-05T03:16:34.255Z,2.30
2023-03-05T03:19:01.088Z,2.30
2023-03-05T03:21:28.007Z,2.20
2023-03-05T03:23:54.872Z,2.20
2023-03-05T03:26:21.694Z,2.10
2023-03-05T03:28:48.633Z,2.10
2023-03-05T03:31:15.658Z,2.10
2023-03-05T03:33:42.639Z,2.10
2023-03-05T03:36:09.969Z,2.10
2023-03-05T03:38:36.840Z,2.10
2023-03-05T03:41:07.969Z,2.10
2023-03-05T03:43:36.913Z,2.00
2023-03-05T03:46:08.406Z,2.00
2023-03-05T03:48:36.025Z,2.00
2023-03-05T03:51:06.741Z,2.00
2023-03-05T03:53:33.726Z,2.00
2023-03-05T03:56:00.797Z,2.00
2023-03-05T03:58:27.605Z,2.00
2023-03-05T04:00:54.344Z,2.00
2023-03-05T04:03:21.223Z,2.00
2023-03-05T04:05:48.018Z,2.00
2023-03-05T04:08:14.894Z,2.00
2023-03-05T04:10:41.937Z,2.00
2023-03-05T04:13:09.333Z,2.00
2023-03-05T04:15:36.349Z,2.00
2023-03-05T04:18:03.285Z,2.00
2023-03-05T04:20:30.101Z,2.00
2023-03-05T04:22:56.964Z,2.10
2023-03-05T04:25:23.820Z,2.00
2023-03-05T04:27:50.886Z,2.10
2023-03-05T04:30:18.231Z,2.00
2023-03-05T04:32:45.048Z,2.10
2023-03-05T04:35:11.953Z,2.20
2023-03-05T04:37:38.793Z,2.10
2023-03-05T04:40:06.583Z,2.10
2023-03-05T04:42:33.387Z,2.10
2023-03-05T04:45:00.162Z,2.10
2023-03-05T04:47:26.961Z,2.10
2023-03-05T04:49:53.885Z,2.10
2023-03-05T04:52:20.772Z,2.10
2023-03-05T04:54:47.570Z,2.10
2023-03-05T04:57:14.356Z,2.00
2023-03-05T04:59:41.232Z,2.00
2023-03-05T05:02:08.089Z,2.00
2023-03-05T05:04:36.061Z,1.90
2023-03-05T05:07:04.596Z,1.90
2023-03-05T05:09:31.373Z,1.90
2023-03-05T05:11:58.127Z,2.00
2023-03-05T05:14:25.261Z,1.90
2023-03-05T05:16:52.114Z,1.90
2023-03-05T05:19:19.101Z,2.00
2023-03-05T05:21:45.937Z,2.00
2023-03-05T05:24:13.259Z,2.00
2023-03-05T05:26:40.173Z,1.90
2023-03-05T05:29:06.970Z,1.90
2023-03-05T05:31:33.784Z,1.90
2023-03-05T05:34:00.722Z,1.90
2023-03-05T05:36:27.568Z,1.90
2023-03-05T05:38:54.489Z,1.90
2023-03-05T05:41:21.571Z,1.90
2023-03-05T05:43:48.523Z,1.80
2023-03-05T05:46:19.444Z,1.80
2023-03-05T05:48:47.185Z,1.80
2023-03-05T05:51:21.691Z,1.80
2023-03-05T05:53:49.540Z,1.80
2023-03-05T05:56:17.648Z,1.80
2023-03-05T05:58:48.068Z,1.80
2023-03-05T06:01:26.398Z,1.80
2023-03-05T06:03:53.763Z,1.80
2023-03-05T06:06:24.005Z,1.80
2023-03-05T06:08:51.850Z,1.80
2023-03-05T06:11:19.741Z,1.80
2023-03-05T06:13:48.773Z,1.80
2023-03-05T06:16:23.793Z,1.80
2023-03-05T06:18:54.496Z,1.80
2023-03-05T06:21:23.311Z,1.80
2023-03-05T06:23:52.582Z,1.80
2023-03-05T06:26:22.862Z,1.90
2023-03-05T06:28:49.912Z,1.90
2023-03-05T06:31:25.643Z,1.90
2023-03-05T06:34:01.176Z,1.90
2023-03-05T06:36:29.058Z,1.90
2023-03-05T06:38:57.528Z,1.90
2023-03-05T06:41:31.438Z,1.90
2023-03-05T06:44:02.394Z,1.90
2023-03-05T06:46:37.270Z,1.90
2023-03-05T06:49:04.533Z,1.90
2023-03-05T06:51:35.726Z,1.90
2023-03-05T06:54:07.657Z,1.90
2023-03-05T06:56:40.294Z,1.90
2023-03-05T06:59:07.679Z,1.90
2023-03-05T07:01:34.949Z,1.90
2023-03-05T07:04:03.046Z,1.80
2023-03-05T07:06:34.293Z,1.90
2023-03-05T07:09:03.269Z,1.90
2023-03-05T07:11:30.270Z,1.90
2023-03-05T07:13:57.141Z,1.90
2023-03-05T07:16:27.707Z,1.90
2023-03-05T07:18:57.030Z,1.90
2023-03-05T07:21:28.683Z,1.90
2023-03-05T07:23:57.839Z,2.00
2023-03-05T07:26:25.576Z,1.90
2023-03-05T07:28:52.820Z,1.90
2023-03-05T07:31:27.234Z,1.90
2023-03-05T07:33:54.299Z,1.90
2023-03-05T07:36:21.219Z,1.90
2023-03-05T07:38:48.167Z,2.00
2023-03-05T07:41:23.407Z,2.00
2023-03-05T07:43:55.467Z,2.10
2023-03-05T07:46:28.456Z,2.20
2023-03-05T07:48:57.541Z,2.30
2023-03-05T07:51:27.482Z,2.40
2023-03-05T07:53:57.519Z,2.70
2023-03-05T07:56:35.397Z,2.90
2023-03-05T07:59:10.690Z,3.10
2023-03-05T08:01:38.071Z,3.30
2023-03-05T08:04:06.835Z,3.50
2023-03-05T08:06:33.888Z,3.70
2023-03-05T08:09:01.052Z,3.90
2023-03-05T08:11:28.578Z,4.10
2023-03-05T08:13:56.186Z,4.20
2023-03-05T08:16:25.782Z,4.30
2023-03-05T08:18:57.386Z,4.20
2023-03-05T08:21:33.624Z,4.10
2023-03-05T08:24:07.196Z,3.90
2023-03-05T08:26:40.392Z,3.80
2023-03-05T08:29:09.506Z,3.70
2023-03-05T08:31:37.402Z,3.70
2023-03-05T08:34:06.559Z,3.70
2023-03-05T08:36:33.838Z,3.60
2023-03-05T08:39:00.912Z,3.60
2023-03-05T08:41:28.090Z,3.60
2023-03-05T08:43:55.326Z,3.50
2023-03-05T08:46:22.192Z,3.50
2023-03-05T08:48:49.197Z,3.40
2023-03-05T08:51:20.458Z,3.40
2023-03-05T08:53:48.128Z,3.40
2023-03-05T08:56:15.460Z,3.30
2023-03-05T08:58:42.455Z,3.30
2023-03-05T09:01:10.083Z,3.30
2023-03-05T09:03:36.979Z,3.40
2023-03-05T09:06:08.056Z,3.50
2023-03-05T09:08:36.543Z,3.70
2023-03-05T09:11:06.533Z,3.70
2023-03-05T09:13:33.917Z,3.70
2023-03-05T09:16:06.030Z,3.80
2023-03-05T09:18:36.458Z,3.80
2023-03-05T09:21:16.692Z,3.90
2023-03-05T09:23:44.959Z,3.90
2023-03-05T09:26:15.608Z,4.00
2023-03-05T09:28:42.694Z,4.00
2023-03-05T09:31:09.969Z,4.10
2023-03-05T09:33:38.571Z,4.30
2023-03-05T09:36:20.637Z,4.40
2023-03-05T09:38:47.628Z,4.50
2023-03-05T09:41:17.173Z,4.50
2023-03-05T09:44:04.059Z,4.60
2023-03-05T09:46:45.954Z,4.80
2023-03-05T09:49:32.125Z,4.90
2023-03-05T09:52:20.978Z,5.00
2023-03-05T09:54:55.337Z,4.90
2023-03-05T09:57:31.684Z,4.80
2023-03-05T10:00:08.839Z,4.90
2023-03-05T10:02:45.003Z,5.20
2023-03-05T10:05:26.010Z,5.70
2023-03-05T10:08:03.462Z,6.10
2023-03-05T10:10:53.111Z,6.20
2023-03-05T10:13:35.515Z,6.20
2023-03-05T10:16:45.887Z,6.00
2023-03-05T10:19:29.136Z,5.80
2023-03-05T10:22:20.877Z,5.30
2023-03-05T10:24:50.595Z,5.00
2023-03-05T10:27:33.458Z,4.70
2023-03-05T10:30:18.919Z,4.50
2023-03-05T10:33:17.914Z,4.30
2023-03-05T10:36:02.805Z,4.20
2023-03-05T10:38:53.703Z,4.20
2023-03-05T10:41:35.448Z,4.30
2023-03-05T10:44:16.476Z,4.40
2023-03-05T10:46:47.368Z,4.40
2023-03-05T10:49:29.430Z,4.40
2023-03-05T10:52:18.602Z,4.20
2023-03-05T10:54:45.610Z,4.20
2023-03-05T10:57:21.513Z,4.00
2023-03-05T11:00:01.046Z,3.90
2023-03-05T11:02:28.250Z,3.80
2023-03-05T11:04:55.077Z,3.60
2023-03-05T11:07:22.691Z,3.50
2023-03-05T11:10:03.982Z,3.50
2023-03-05T11:12:34.758Z,3.50
2023-03-05T11:15:25.180Z,3.50
2023-03-05T11:18:21.346Z,3.50
2023-03-05T11:20:48.617Z,3.60
2023-03-05T11:23:23.934Z,3.60
2023-03-05T11:26:02.344Z,3.70
2023-03-05T11:28:34.579Z,3.90
2023-03-05T11:31:25.434Z,4.00
2023-03-05T11:34:01.455Z,4.20
2023-03-05T11:36:33.953Z,4.30
2023-03-05T11:39:17.196Z,4.40
2023-03-05T11:41:49.362Z,4.50
2023-03-05T11:44:46.687Z,4.50
2023-03-05T11:47:54.489Z,4.50
2023-03-05T11:50:34.366Z,4.40
2023-03-05T11:53:17.795Z,4.40
2023-03-05T11:56:14.589Z,4.50
2023-03-05T11:58:54.514Z,4.70
2023-03-05T12:01:25.149Z,4.80
2023-03-05T12:03:53.732Z,5.00
2023-03-05T12:06:37.677Z,5.20
2023-03-05T12:09:18.648Z,5.30
2023-03-05T12:11:50.572Z,5.40
2023-03-05T12:15:12.831Z,5.20
2023-03-05T12:18:00.031Z,5.20
2023-03-05T12:20:45.587Z,5.20
2023-03-05T12:23:17.857Z,5.20
2023-03-05T12:25:59.286Z,5.10
2023-03-05T12:28:31.904Z,5.00
2023-03-05T12:31:26.155Z,4.90
2023-03-05T12:33:53.190Z,4.80
2023-03-05T12:36:22.909Z,4.70
2023-03-05T12:38:55.119Z,4.70
2023-03-05T12:41:27.440Z,4.70
2023-03-05T12:44:07.122Z,4.70
2023-03-05T12:46:36.859Z,4.80
2023-03-05T12:49:27.076Z,4.90
2023-03-05T12:51:57.267Z,5.20
2023-03-05T12:54:36.573Z,5.20
2023-03-05T12:57:20.210Z,5.20
2023-03-05T13:00:05.208Z,5.20
2023-03-05T13:02:45.707Z,5.20
2023-03-05T13:05:29.704Z,5.30
2023-03-05T13:08:26.900Z,5.20
2023-03-05T13:11:21.331Z,5.20
2023-03-05T13:13:50.315Z,5.10
2023-03-05T13:16:29.154Z,5.10
2023-03-05T13:19:01.394Z,5.10
2023-03-05T13:21:32.389Z,5.10
2023-03-05T13:24:03.179Z,5.00
2023-03-05T13:26:41.382Z,5.00
2023-03-05T13:29:18.652Z,5.00
2023-03-05T13:32:17.723Z,4.90
2023-03-05T13:34:48.124Z,4.90
2023-03-05T13:37:22.315Z,4.80
2023-03-05T13:40:04.243Z,4.70
2023-03-05T13:42:34.750Z,4.60
2023-03-05T13:45:29.727Z,4.60
2023-03-05T13:48:02.286Z,4.40
2023-03-05T13:50:37.085Z,4.30
2023-03-05T13:53:31.689Z,4.20
2023-03-05T13:56:05.896Z,4.10
2023-03-05T13:58:52.801Z,4.00
2023-03-05T14:01:37.929Z,3.90
2023-03-05T14:04:15.625Z,3.80
2023-03-05T14:06:52.135Z,3.70
2023-03-05T14:09:18.818Z,3.60
2023-03-05T14:12:05.862Z,3.60
2023-03-05T14:14:38.540Z,3.60
2023-03-05T14:17:36.535Z,3.50
2023-03-05T14:20:13.378Z,3.60
2023-03-05T14:22:46.399Z,3.50
2023-03-05T14:25:39.626Z,3.50
2023-03-05T14:28:16.892Z,3.50
2023-03-05T14:30:54.775Z,3.60
2023-03-05T14:33:32.987Z,3.60
2023-03-05T14:36:02.971Z,3.60
2023-03-05T14:38:34.583Z,3.70
2023-03-05T14:41:35.969Z,3.90
2023-03-05T14:44:10.487Z,4.00
2023-03-05T14:46:37.316Z,4.10
2023-03-05T14:49:04.195Z,4.10
2023-03-05T14:51:35.499Z,4.20
2023-03-05T14:54:02.262Z,4.20
2023-03-05T14:56:29.424Z,4.20
2023-03-05T14:58:57.703Z,4.30
2023-03-05T15:01:25.695Z,4.20
2023-03-05T15:03:52.619Z,4.20
2023-03-05T15:06:39.141Z,4.20
2023-03-05T15:09:08.122Z,4.30
2023-03-05T15:11:35.311Z,4.30
2023-03-05T15:14:02.480Z,4.20
2023-03-05T15:16:32.102Z,4.20
2023-03-05T15:18:59.307Z,4.20
2023-03-05T15:21:26.125Z,4.20
2023-03-05T15:23:52.944Z,4.10
2023-03-05T15:26:19.865Z,4.10
2023-03-05T15:28:47.057Z,4.00
2023-03-05T15:31:17.749Z,4.00
2023-03-05T15:33:44.897Z,3.90
2023-03-05T15:36:11.983Z,3.80
2023-03-05T15:38:38.937Z,3.70
2023-03-05T15:41:06.212Z,3.80
2023-03-05T15:43:33.024Z,3.70
2023-03-05T15:45:59.803Z,3.70
2023-03-05T15:48:26.660Z,3.70
2023-03-05T15:50:53.542Z,3.70
2023-03-05T15:53:22.429Z,3.70
2023-03-05T15:55:49.218Z,3.70
2023-03-05T15:58:17.514Z,3.70
2023-03-05T16:00:45.855Z,3.80
2023-03-05T16:03:12.821Z,3.80
2023-03-05T16:05:40.106Z,3.80
2023-03-05T16:08:11.261Z,3.80
2023-03-05T16:10:39.535Z,3.70
2023-03-05T16:13:15.599Z,3.70
2023-03-05T16:15:44.268Z,3.70
2023-03-05T16:18:16.168Z,3.60
2023-03-05T16:20:43.204Z,3.60
2023-03-05T16:23:10.052Z,3.60
2023-03-05T16:25:37.643Z,3.60
2023-03-05T16:28:04.764Z,3.60
2023-03-05T16:30:33.109Z,3.50
2023-03-05T16:33:00.241Z,3.50
2023-03-05T16:35:27.164Z,3.40
2023-03-05T16:37:54.149Z,3.40
2023-03-05T16:40:21.025Z,3.30
2023-03-05T16:42:47.987Z,3.30
2023-03-05T16:45:14.797Z,3.20
2023-03-05T16:47:41.815Z,3.20
2023-03-05T16:50:11.235Z,3.10
2023-03-05T16:52:38.314Z,3.10
2023-03-05T16:55:06.697Z,3.10
2023-03-05T16:57:33.660Z,3.10
2023-03-05T17:00:02.476Z,3.10
2023-03-05T17:02:29.380Z,3.10
2023-03-05T17:04:57.685Z,3.00
2023-03-05T17:07:26.462Z,3.00
2023-03-05T17:09:53.944Z,3.00
2023-03-05T17:12:23.352Z,3.00
2023-03-05T17:14:50.232Z,2.90
2023-03-05T17:17:17.111Z,2.90
2023-03-05T17:19:44.599Z,2.90
2023-03-05T17:22:12.825Z,2.90
2023-03-05T17:24:42.706Z,2.80
2023-03-05T17:27:10.979Z,2.80
2023-03-05T17:29:37.818Z,2.80
2023-03-05T17:32:05.717Z,2.80
2023-03-05T17:34:36.468Z,2.70
2023-03-05T17:37:05.661Z,2.70
2023-03-05T17:39:33.205Z,2.70
2023-03-05T17:42:00.801Z,2.70
2023-03-05T17:44:27.694Z,2.70
2023-03-05T17:46:54.568Z,2.70
2023-03-05T17:49:21.391Z,2.70
2023-03-05T17:51:48.226Z,2.60
2023-03-05T17:54:15.113Z,2.70
2023-03-05T17:56:42.287Z,2.60
2023-03-05T17:59:09.287Z,2.70
2023-03-05T18:01:36.235Z,2.60
2023-03-05T18:04:03.164Z,2.60
2023-03-05T18:06:30.085Z,2.60
2023-03-05T18:08:57.200Z,2.60
2023-03-05T18:11:24.314Z,2.50
2023-03-05T18:13:51.186Z,2.50
2023-03-05T18:16:18.189Z,2.50
2023-03-05T18:18:45.485Z,2.50
2023-03-05T18:21:12.630Z,2.50
2023-03-05T18:23:39.407Z,2.50
2023-03-05T18:26:06.153Z,2.50
2023-03-05T18:28:33.158Z,2.50
2023-03-05T18:31:01.262Z,2.50
2023-03-05T18:33:28.063Z,2.50
2023-03-05T18:35:55.116Z,2.50
2023-03-05T18:38:25.214Z,2.50
2023-03-05T18:40:53.758Z,2.50
2023-03-05T18:43:23.154Z,2.50
2023-03-05T18:45:55.575Z,2.50
2023-03-05T18:48:22.744Z,2.50
2023-03-05T18:50:52.557Z,2.50
2023-03-05T18:53:21.516Z,2.50
2023-03-05T18:55:50.927Z,2.50
2023-03-05T18:58:18.281Z,2.50
2023-03-05T19:00:47.130Z,2.40
2023-03-05T19:03:16.290Z,2.50
2023-03-05T19:05:43.649Z,2.50
2023-03-05T19:08:11.187Z,2.50
2023-03-05T19:10:38.240Z,2.50
2023-03-05T19:13:35.414Z,2.50
2023-03-05T19:16:11.261Z,2.50
2023-03-05T19:18:43.901Z,2.50
2023-03-05T19:21:10.914Z,2.50
2023-03-05T19:23:37.700Z,2.50
2023-03-05T19:26:04.724Z,2.40
2023-03-05T19:28:31.700Z,2.50
2023-03-05T19:30:58.573Z,2.40
2023-03-05T19:33:25.536Z,2.50
2023-03-05T19:35:52.490Z,2.50
2023-03-05T19:38:19.466Z,2.50
2023-03-05T19:40:47.632Z,2.50
2023-03-05T19:43:14.522Z,2.60
2023-03-05T19:45:41.341Z,2.50
2023-03-05T19:48:08.438Z,2.50
2023-03-05T19:50:35.259Z,2.50
2023-03-05T19:53:02.134Z,2.60
2023-03-05T19:55:29.022Z,2.60
2023-03-05T19:57:55.836Z,2.60
2023-03-05T20:00:26.314Z,2.60
2023-03-05T20:02:53.308Z,2.60
2023-03-05T20:05:23.036Z,2.50
2023-03-05T20:07:50.418Z,2.60
2023-03-05T20:10:17.728Z,2.60
2023-03-05T20:12:47.813Z,2.60
2023-03-05T20:15:15.104Z,2.50
2023-03-05T20:17:45.605Z,2.50
2023-03-05T20:20:17.922Z,2.50
2023-03-05T20:22:47.234Z,2.50
2023-03-05T20:25:17.594Z,2.50
2023-03-05T20:27:44.530Z,2.50
2023-03-05T20:30:15.265Z,2.50
2023-03-05T20:32:42.384Z,2.50
2023-03-05T20:35:14.824Z,2.50
2023-03-05T20:37:50.125Z,2.70
2023-03-05T20:40:17.792Z,2.50
2023-03-05T20:42:44.705Z,2.50
2023-03-05T20:45:12.254Z,2.50
2023-03-05T20:47:44.702Z,2.50
2023-03-05T20:50:14.442Z,2.60
2023-03-05T20:52:41.321Z,2.50
2023-03-05T20:55:09.623Z,2.60
2023-03-05T20:57:36.409Z,2.60
2023-03-05T21:00:05.360Z,2.60
2023-03-05T21:02:32.256Z,2.60
2023-03-05T21:04:59.111Z,2.60
2023-03-05T21:07:28.049Z,2.60
2023-03-05T21:09:54.889Z,2.60
2023-03-05T21:12:21.796Z,2.60
2023-03-05T21:14:48.625Z,2.60
2023-03-05T21:17:18.996Z,2.60
2023-03-05T21:19:46.008Z,2.60
2023-03-05T21:22:12.882Z,2.70
2023-03-05T21:24:55.538Z,2.60
2023-03-05T21:27:22.603Z,2.60
2023-03-05T21:29:50.296Z,2.70
2023-03-05T21:32:17.099Z,2.70
2023-03-05T21:34:44.082Z,2.70
2023-03-05T21:37:11.499Z,2.70
2023-03-05T21:39:38.541Z,2.60
2023-03-05T21:42:05.486Z,2.60
2023-03-05T21:44:32.291Z,2.70
2023-03-05T21:46:59.061Z,2.70
2023-03-05T21:49:26.578Z,2.70
2023-03-05T21:52:09.348Z,2.70
2023-03-05T21:54:41.368Z,2.70
2023-03-05T21:57:11.189Z,2.70
2023-03-05T21:59:42.663Z,2.70
2023-03-05T22:02:15.012Z,2.60
2023-03-05T22:04:41.970Z,2.60
2023-03-05T22:07:09.054Z,2.60
2023-03-05T22:09:35.954Z,2.60
2023-03-05T22:12:04.665Z,2.60
2023-03-05T22:14:31.458Z,2.60
2023-03-05T22:17:02.171Z,2.60
2023-03-05T22:19:30.194Z,2.60
2023-03-05T22:21:57.660Z,2.60
2023-03-05T22:24:27.580Z,2.60
2023-03-05T22:26:54.428Z,2.60
2023-03-05T22:29:21.216Z,2.60
2023-03-05T22:31:48.086Z,2.60
2023-03-05T22:34:14.823Z,2.60
2023-03-05T22:36:41.697Z,2.60
2023-03-05T22:39:08.535Z,2.60
2023-03-05T22:41:35.349Z,2.60
2023-03-05T22:44:02.237Z,2.60
2023-03-05T22:46:29.088Z,2.60
2023-03-05T22:48:56.058Z,2.60
2023-03-05T22:51:23.180Z,2.60
2023-03-05T22:53:49.981Z,2.60
2023-03-05T22:56:20.000Z,2.60
2023-03-05T22:58:47.736Z,2.60
2023-03-05T23:01:21.983Z,2.60
2023-03-05T23:03:54.775Z,2.60
2023-03-05T23:06:21.613Z,2.60
2023-03-05T23:08:48.392Z,2.60
2023-03-05T23:11:15.210Z,2.60
2023-03-05T23:13:42.254Z,2.50
2023-03-05T23:16:09.755Z,2.50
2023-03-05T23:18:37.191Z,2.50
2023-03-05T23:21:04.189Z,2.40
2023-03-05T23:23:31.062Z,2.40
2023-03-05T23:25:57.923Z,2.40
2023-03-05T23:28:24.815Z,2.40
2023-03-05T23:30:51.828Z,2.30
2023-03-05T23:33:23.022Z,2.30
2023-03-05T23:35:57.175Z,2.20
2023-03-05T23:38:26.547Z,2.20
2023-03-05T23:40:59.663Z,2.20
2023-03-05T23:43:27.600Z,2.20
2023-03-05T23:45:55.074Z,2.20
2023-03-05T23:48:24.872Z,2.10
2023-03-05T23:50:52.559Z,2.10
2023-03-05T23:53:23.977Z,2.00
2023-03-05T23:55:51.842Z,2.00
2023-03-05T23:58:22.651Z,2.00
